createdAt,value
2022-12-18T00:00:11.604Z,6.00
2022-12-18T00:05:18.501Z,62.53
2022-12-18T00:10:24.680Z,6.88
2022-12-18T00:15:29.978Z,6.78
2022-12-18T00:20:35.262Z,6.40
2022-12-18T00:25:39.125Z,6.90
2022-12-18T00:30:44.327Z,6.78
2022-12-18T00:35:48.189Z,6.93
2022-12-18T00:40:52.126Z,6.70
2022-12-18T00:45:57.747Z,6.85
2022-12-18T00:51:03.166Z,7.28
2022-12-18T00:56:07.773Z,7.00
2022-12-18T01:01:13.064Z,7.50
2022-12-18T01:06:17.760Z,7.32
2022-12-18T01:11:22.695Z,7.60
2022-12-18T01:16:28.000Z,7.60
2022-12-18T01:21:31.894Z,8.80
2022-12-18T01:26:40.223Z,56.15
2022-12-18T01:31:46.086Z,157.77
2022-12-18T01:36:50.053Z,94.22
2022-12-18T01:42:06.161Z,37.95
2022-12-18T01:47:11.792Z,23.98
2022-12-18T01:52:15.988Z,21.13
2022-12-18T01:57:19.932Z,9.75
2022-12-18T02:02:25.379Z,32.92
2022-12-18T02:12:43.001Z,34.55
2022-12-18T02:17:52.742Z,10.95
2022-12-18T02:23:08.790Z,76.32
2022-12-18T02:28:17.767Z,12.10
2022-12-18T02:33:23.457Z,86.30
2022-12-18T02:38:30.045Z,178.57
2022-12-18T02:43:39.133Z,182.27
2022-12-18T02:48:44.506Z,159.13
2022-12-18T02:53:56.230Z,207.93
2022-12-18T02:59:04.628Z,179.90
2022-12-18T03:04:16.971Z,194.98
2022-12-18T03:09:23.753Z,179.32
2022-12-18T03:14:32.172Z,108.35
2022-12-18T03:19:38.766Z,198.60
2022-12-18T03:24:42.844Z,38.03
2022-12-18T03:29:50.500Z,168.60
2022-12-18T03:35:01.119Z,181.20
2022-12-18T03:40:09.515Z,149.55
2022-12-18T03:45:22.247Z,132.52
2022-12-18T03:50:33.752Z,199.55
2022-12-18T03:55:38.622Z,208.65
2022-12-18T04:00:46.418Z,162.57
2022-12-18T04:05:52.079Z,218.90
2022-12-18T04:10:58.329Z,92.03
2022-12-18T04:16:04.697Z,8.18
2022-12-18T04:21:09.651Z,190.60
2022-12-18T04:26:14.501Z,35.85
2022-12-18T04:31:40.043Z,213.57
2022-12-18T04:36:44.233Z,212.27
2022-12-18T04:41:48.460Z,209.90
2022-12-18T04:46:53.909Z,200.45
2022-12-18T04:51:58.374Z,193.32
2022-12-18T04:57:02.228Z,188.20
2022-12-18T05:02:07.529Z,154.95
2022-12-18T05:07:11.477Z,211.57
2022-12-18T05:12:15.372Z,195.82
2022-12-18T05:17:20.645Z,197.95
2022-12-18T05:22:24.463Z,187.95
2022-12-18T05:27:28.357Z,185.73
2022-12-18T05:32:33.637Z,200.32
2022-12-18T05:37:42.671Z,206.50
2022-12-18T05:42:47.198Z,139.10
2022-12-18T05:47:52.486Z,7.75
2022-12-18T05:52:56.498Z,7.93
2022-12-18T05:58:00.461Z,7.75
2022-12-18T06:03:05.837Z,8.55
2022-12-18T06:08:10.714Z,8.23
2022-12-18T06:13:14.526Z,56.35
2022-12-18T06:18:19.812Z,171.98
2022-12-18T06:23:23.709Z,161.15
2022-12-18T06:28:27.529Z,8.50
2022-12-18T06:33:33.177Z,8.63
2022-12-18T06:38:38.191Z,6.78
2022-12-18T06:43:42.749Z,7.82
2022-12-18T06:48:51.274Z,7.22
2022-12-18T06:53:55.184Z,6.35
2022-12-18T06:58:59.104Z,5.88
2022-12-18T07:04:04.386Z,5.97
2022-12-18T07:09:08.310Z,5.05
2022-12-18T07:14:12.194Z,6.32
2022-12-18T07:19:17.508Z,6.60
2022-12-18T07:24:21.490Z,7.00
2022-12-18T07:29:25.542Z,176.23
2022-12-18T07:34:30.871Z,230.63
2022-12-18T07:39:34.829Z,229.45
2022-12-18T07:44:38.762Z,236.27
2022-12-18T07:49:44.085Z,242.10
2022-12-18T07:54:49.990Z,239.05
2022-12-18T08:04:59.167Z,235.63
2022-12-18T08:10:03.011Z,235.85
2022-12-18T08:15:08.937Z,248.43
2022-12-18T08:20:16.014Z,251.48
2022-12-18T08:25:19.913Z,239.85
2022-12-18T08:30:23.895Z,232.02
2022-12-18T08:35:34.258Z,235.52
2022-12-18T08:40:40.346Z,232.88
2022-12-18T08:45:44.444Z,231.25
2022-12-18T08:50:57.464Z,233.68
2022-12-18T08:56:01.386Z,242.60
2022-12-18T09:01:07.608Z,211.93
2022-12-18T09:06:16.726Z,208.32
2022-12-18T09:11:23.684Z,201.88
2022-12-18T09:16:32.285Z,156.30
2022-12-18T09:21:40.239Z,208.80
2022-12-18T09:26:47.275Z,8.50
2022-12-18T09:31:51.656Z,6.25
2022-12-18T09:36:56.954Z,5.90
2022-12-18T09:42:01.076Z,6.00
2022-12-18T09:47:11.765Z,6.53
2022-12-18T09:52:21.728Z,7.22
2022-12-18T09:57:26.767Z,8.13
2022-12-18T10:02:33.109Z,10.35
2022-12-18T10:07:49.750Z,24.38
2022-12-18T10:13:04.253Z,79.53
2022-12-18T10:18:22.055Z,40.17
2022-12-18T10:23:30.749Z,143.23
2022-12-18T10:28:36.452Z,148.07
2022-12-18T10:38:45.352Z,159.80
2022-12-18T10:43:49.230Z,160.82
2022-12-18T10:48:56.170Z,135.40
2022-12-18T10:54:03.229Z,136.93
2022-12-18T10:59:10.062Z,147.93
2022-12-18T11:04:19.273Z,132.02
2022-12-18T11:09:25.920Z,142.20
2022-12-18T11:14:31.034Z,169.10
2022-12-18T11:19:36.566Z,12.07
2022-12-18T11:24:41.900Z,165.85
2022-12-18T11:29:46.843Z,155.48
2022-12-18T11:34:58.789Z,174.27
2022-12-18T11:40:09.230Z,149.43
2022-12-18T11:45:26.468Z,179.05
2022-12-18T11:50:35.678Z,168.93
2022-12-18T11:55:45.837Z,177.60
2022-12-18T12:00:56.849Z,170.80
2022-12-18T12:06:08.783Z,156.55
2022-12-18T12:11:21.340Z,171.73
2022-12-18T12:16:27.743Z,169.18
2022-12-18T12:21:38.378Z,155.48
2022-12-18T12:26:49.699Z,149.93
2022-12-18T12:32:04.474Z,145.60
2022-12-18T12:37:18.806Z,149.45
2022-12-18T12:42:47.146Z,162.32
2022-12-18T12:47:52.001Z,164.25
2022-12-18T12:52:57.818Z,154.47
2022-12-18T13:03:14.811Z,155.07
2022-12-18T13:08:26.679Z,150.52
2022-12-18T13:13:51.434Z,156.68
2022-12-18T13:18:57.971Z,167.38
2022-12-18T13:24:18.522Z,175.63
2022-12-18T13:29:46.560Z,166.15
2022-12-18T13:34:51.634Z,167.25
2022-12-18T13:39:55.615Z,168.85
2022-12-18T13:45:01.124Z,170.63
2022-12-18T13:55:18.976Z,171.90
2022-12-18T14:00:30.020Z,187.80
2022-12-18T14:05:36.222Z,184.80
2022-12-18T14:10:48.353Z,189.02
2022-12-18T14:15:55.059Z,188.60
2022-12-18T14:21:00.949Z,187.10
2022-12-18T14:26:20.305Z,176.18
2022-12-18T14:31:27.153Z,188.13
2022-12-18T14:36:31.787Z,184.55
2022-12-18T14:41:35.655Z,161.65
2022-12-18T14:46:41.875Z,179.88
2022-12-18T14:51:50.033Z,179.68
2022-12-18T14:56:58.990Z,172.45
2022-12-18T15:02:07.385Z,158.98
2022-12-18T15:07:15.106Z,195.38
2022-12-18T15:12:36.425Z,192.25
2022-12-18T15:17:41.717Z,182.25
2022-12-18T15:22:45.586Z,179.77
2022-12-18T15:27:49.910Z,172.75
2022-12-18T15:33:19.153Z,196.73
2022-12-18T15:38:23.061Z,178.10
2022-12-18T15:43:36.523Z,169.98
2022-12-18T15:48:43.090Z,197.57
2022-12-18T15:53:47.318Z,196.60
2022-12-18T15:58:51.221Z,203.10
2022-12-18T16:03:56.944Z,229.88
2022-12-18T16:09:00.986Z,224.90
2022-12-18T16:14:04.878Z,221.43
2022-12-18T16:19:10.229Z,188.32
2022-12-18T16:24:17.667Z,219.02
2022-12-18T16:29:25.792Z,232.30
2022-12-18T16:34:35.423Z,232.43
2022-12-18T16:39:40.601Z,177.10
2022-12-18T16:44:44.965Z,9.25
2022-12-18T16:49:51.950Z,190.70
2022-12-18T16:54:55.941Z,213.70
2022-12-18T17:00:04.662Z,221.27
2022-12-18T17:05:11.209Z,176.63
2022-12-18T17:10:15.791Z,189.75
2022-12-18T17:15:19.709Z,166.60
2022-12-18T17:20:25.386Z,140.68
2022-12-18T17:25:29.284Z,171.73
2022-12-18T17:30:33.178Z,167.85
2022-12-18T17:35:38.457Z,198.82
2022-12-18T17:40:46.324Z,230.80
2022-12-18T17:45:50.530Z,131.88
2022-12-18T17:50:58.197Z,214.82
2022-12-18T17:56:06.187Z,190.85
2022-12-18T18:01:18.703Z,178.50
2022-12-18T18:06:25.190Z,181.93
2022-12-18T18:11:46.681Z,166.15
2022-12-18T18:16:52.430Z,118.72
2022-12-18T18:27:01.367Z,211.07
2022-12-18T18:32:06.058Z,191.27
2022-12-18T18:37:12.378Z,108.15
2022-12-18T18:42:16.274Z,190.70
2022-12-18T18:47:20.961Z,170.30
2022-12-18T18:52:26.246Z,9.60
2022-12-18T18:57:30.625Z,142.48
2022-12-18T19:02:34.993Z,164.73
2022-12-18T19:07:40.330Z,199.23
2022-12-18T19:13:01.586Z,202.25
2022-12-18T19:18:05.999Z,188.52
2022-12-18T19:23:11.608Z,221.77
2022-12-18T19:28:21.825Z,90.97
2022-12-18T19:33:42.214Z,178.32
2022-12-18T19:38:48.676Z,196.43
2022-12-18T19:48:56.442Z,164.48
2022-12-18T19:54:02.519Z,160.63
2022-12-18T19:59:06.939Z,152.23
2022-12-18T20:04:12.688Z,212.77
2022-12-18T20:14:23.536Z,190.00
2022-12-18T20:19:28.124Z,199.88
2022-12-18T20:24:34.625Z,153.10
2022-12-18T20:29:38.526Z,161.75
2022-12-18T20:34:42.605Z,216.73
2022-12-18T20:39:48.269Z,206.80
2022-12-18T20:44:52.390Z,211.32
2022-12-18T20:49:56.510Z,209.38
2022-12-18T20:55:04.646Z,179.60
2022-12-18T21:00:11.234Z,160.02
2022-12-18T21:05:16.462Z,225.10
2022-12-18T21:10:21.805Z,185.15
2022-12-18T21:15:28.710Z,171.65
2022-12-18T21:20:33.127Z,162.98
2022-12-18T21:25:38.668Z,229.57
2022-12-18T21:30:42.540Z,177.27
2022-12-18T21:35:46.519Z,168.05
2022-12-18T21:40:51.779Z,215.80
2022-12-18T21:45:55.717Z,225.38
2022-12-18T21:51:01.301Z,192.15
2022-12-18T21:56:07.093Z,184.32
2022-12-18T22:01:11.021Z,193.63
2022-12-18T22:06:15.323Z,181.82
2022-12-18T22:11:20.565Z,208.90
2022-12-18T22:16:26.225Z,195.93
2022-12-18T22:21:31.942Z,180.27
2022-12-18T22:31:44.405Z,174.00
2022-12-18T22:36:50.339Z,184.27
2022-12-18T22:41:55.780Z,182.48
2022-12-18T22:47:06.348Z,176.63
2022-12-18T22:52:11.302Z,165.50
2022-12-18T22:57:16.561Z,170.60
2022-12-18T23:02:21.003Z,195.15
2022-12-18T23:07:25.022Z,177.20
2022-12-18T23:12:30.268Z,157.93
2022-12-18T23:17:34.430Z,152.35
2022-12-18T23:22:38.246Z,155.77
2022-12-18T23:27:43.577Z,154.02
2022-12-18T23:32:47.413Z,147.07
2022-12-18T23:37:59.814Z,156.30
2022-12-18T23:43:05.613Z,157.73
2022-12-18T23:48:09.588Z,156.85
2022-12-18T23:53:13.762Z,150.38
2022-12-18T23:58:20.678Z,161.88
